Time;durP1;ratioP1;P1;durP2;ratioP2;P2;SDS_P1;SDS_P2;PMS_P1;PMS_P2;Temp;Humidity;BMP_temperature;BMP_pressure;BME280_temperature;BME280_humidity;BME280_pressure;Samples;Min_cycle;Max_cycle;Signal;HPM_P1;HPM_P2
2022/12/22 03:27:44;;;;;;;0.90;0.22;;;10.10;99.90;;;;;;4955052;28;20050;-76
2022/12/22 03:30:09;;;;;;;0.30;0.28;;;10.00;99.90;;;;;;4949301;28;20031;-76
2022/12/22 03:32:35;;;;;;;2.47;0.55;;;10.00;99.90;;;;;;4949843;28;20067;-77
2022/12/22 03:35:01;;;;;;;2.92;0.40;;;10.00;99.90;;;;;;4948098;28;20035;-77
2022/12/22 03:37:26;;;;;;;0.95;0.47;;;10.10;99.90;;;;;;4946487;28;20377;-77
2022/12/22 03:39:55;;;;;;;0.40;0.40;;;10.00;99.90;;;;;;4947224;28;20481;-77
2022/12/22 03:47:52;;;;;;;0.60;0.30;;;10.00;99.90;;;;;;4948257;28;20054;-77
2022/12/22 03:50:18;;;;;;;3.00;0.52;;;10.00;99.90;;;;;;4945787;28;20055;-77
2022/12/22 03:52:43;;;;;;;3.03;0.40;;;10.00;99.90;;;;;;4948580;28;20527;-76
2022/12/22 03:55:09;;;;;;;1.52;0.50;;;10.00;99.90;;;;;;4941384;28;20514;-77
2022/12/22 03:57:35;;;;;;;3.80;0.55;;;10.10;99.90;;;;;;4948077;28;20085;-77
2022/12/22 04:00:01;;;;;;;1.95;0.60;;;10.00;99.90;;;;;;4946649;28;20024;-77
2022/12/22 04:02:26;;;;;;;4.55;0.82;;;10.00;99.90;;;;;;4942178;28;20484;-77
2022/12/22 04:04:52;;;;;;;1.45;0.43;;;9.90;99.90;;;;;;4946865;28;20027;-76
2022/12/22 04:07:21;;;;;;;4.53;0.90;;;10.00;99.90;;;;;;4946269;28;20039;-76
2022/12/22 04:15:14;;;;;;;;;;;10.20;99.90;;;;;;4972135;28;20054;-75
2022/12/22 04:17:46;;;;;;;1.48;0.55;;;10.20;99.90;;;;;;4966217;28;19953;-74
2022/12/22 04:20:12;;;;;;;4.75;0.88;;;10.20;99.90;;;;;;4964504;28;20237;-75
2022/12/22 04:22:40;;;;;;;4.28;1.02;;;10.30;99.90;;;;;;4970287;28;20042;-75
2022/12/22 04:25:07;;;;;;;3.25;0.73;;;10.40;99.90;;;;;;4969445;28;20042;-75
2022/12/22 04:27:32;;;;;;;6.50;0.77;;;10.40;99.90;;;;;;4971707;28;20069;-75
2022/12/22 04:29:58;;;;;;;2.70;0.73;;;10.50;99.90;;;;;;4973259;28;20106;-75
2022/12/22 04:32:23;;;;;;;6.07;0.85;;;10.40;99.90;;;;;;4971107;28;20271;-75
2022/12/22 04:34:52;;;;;;;3.13;1.00;;;10.60;99.90;;;;;;4969121;28;20435;-75
2022/12/22 04:37:18;;;;;;;6.00;0.98;;;10.50;99.90;;;;;;4973300;28;20094;-75
2022/12/22 04:39:46;;;;;;;2.83;0.95;;;10.60;99.90;;;;;;4970288;28;20480;-75
2022/12/22 04:42:15;;;;;;;1.60;0.70;;;10.60;99.90;;;;;;4974427;28;20030;-74
2022/12/22 04:44:40;;;;;;;2.30;0.80;;;10.60;99.90;;;;;;4968479;28;20033;-74
2022/12/22 04:47:06;;;;;;;3.22;0.75;;;10.60;99.90;;;;;;4971553;28;20027;-74
2022/12/22 04:49:35;;;;;;;5.65;1.33;;;10.60;99.90;;;;;;4969127;28;20026;-74
2022/12/22 04:52:00;;;;;;;4.15;0.93;;;10.50;99.90;;;;;;4973823;28;20062;-74
2022/12/22 04:54:26;;;;;;;4.45;1.15;;;10.50;99.90;;;;;;4968311;28;20085;-74
2022/12/22 04:56:52;;;;;;;3.95;0.93;;;10.50;99.90;;;;;;4967519;28;20027;-74
2022/12/22 04:59:17;;;;;;;4.18;0.70;;;10.40;99.90;;;;;;4970519;28;20038;-74
2022/12/22 05:01:46;;;;;;;5.97;0.90;;;10.50;99.90;;;;;;4970814;28;20023;-74
2022/12/22 05:04:12;;;;;;;3.80;0.80;;;10.40;99.90;;;;;;4971073;28;20046;-74
2022/12/22 05:06:37;;;;;;;5.60;1.67;;;10.50;99.90;;;;;;4971340;28;20035;-76
2022/12/22 05:09:12;;;;;;;7.07;0.90;;;10.50;99.90;;;;;;4974215;28;20038;-75
2022/12/22 05:11:41;;;;;;;8.82;1.00;;;10.40;99.90;;;;;;4976572;28;20185;-75
2022/12/22 05:14:13;;;;;;;7.20;1.15;;;10.40;99.90;;;;;;4978267;28;20055;-75
2022/12/22 05:16:41;;;;;;;3.40;0.60;;;10.30;99.90;;;;;;4973957;28;20046;-74
2022/12/22 05:19:13;;;;;;;4.47;0.90;;;10.30;99.90;;;;;;4967327;28;20043;-75
2022/12/22 05:21:45;;;;;;;5.35;1.00;;;10.30;99.90;;;;;;4987639;28;20042;-78
2022/12/22 05:24:13;;;;;;;7.22;0.85;;;10.20;99.90;;;;;;4969733;28;20034;-75
2022/12/22 05:26:42;;;;;;;6.28;1.38;;;10.20;99.90;;;;;;4975488;28;20027;-76
2022/12/22 05:29:08;;;;;;;10.07;1.50;;;10.20;99.90;;;;;;4971209;28;20070;-77
2022/12/22 05:31:34;;;;;;;6.18;1.52;;;10.20;99.90;;;;;;4974807;28;20034;-76
2022/12/22 05:34:00;;;;;;;6.47;0.88;;;10.20;99.90;;;;;;4975390;28;20046;-76
2022/12/22 05:36:28;;;;;;;4.20;0.75;;;10.20;99.90;;;;;;4975302;28;20031;-77
2022/12/22 05:39:00;;;;;;;5.97;0.80;;;10.20;99.90;;;;;;4974648;28;20023;-78
2022/12/22 05:41:25;;;;;;;3.75;1.23;;;10.20;99.90;;;;;;4972681;28;20031;-75
2022/12/22 05:44:06;;;;;;;6.50;1.30;;;10.20;99.90;;;;;;4970281;28;20057;-75
2022/12/22 05:46:32;;;;;;;5.05;1.08;;;10.60;99.90;;;;;;4967508;28;20042;-72
2022/12/22 05:48:57;;;;;;;6.18;1.10;;;10.80;99.90;;;;;;4966372;28;20035;-73
2022/12/22 05:51:23;;;;;;;5.47;1.10;;;10.90;99.90;;;;;;4969881;28;20428;-72
2022/12/22 05:53:48;;;;;;;4.00;1.00;;;11.20;99.90;;;;;;4965257;28;20065;-72
2022/12/22 05:56:20;;;;;;;5.72;1.20;;;11.30;99.90;;;;;;4970884;28;20038;-73
2022/12/22 05:58:46;;;;;;;8.50;1.55;;;11.30;99.90;;;;;;4966847;28;20034;-72
2022/12/22 06:01:11;;;;;;;5.80;1.40;;;11.50;99.90;;;;;;4965204;28;20031;-72
2022/12/22 06:03:40;;;;;;;5.10;1.05;;;11.50;99.90;;;;;;4968428;28;20105;-72
2022/12/22 06:06:06;;;;;;;5.85;1.25;;;11.60;99.90;;;;;;4966001;28;20405;-73
2022/12/22 06:08:37;;;;;;;5.78;1.00;;;11.60;99.90;;;;;;4967177;28;20023;-76
2022/12/22 06:11:03;;;;;;;5.78;1.50;;;11.40;99.90;;;;;;4971370;28;20042;-75
2022/12/22 06:13:32;;;;;;;7.93;2.00;;;11.20;99.90;;;;;;4962432;28;20026;-72
2022/12/22 06:16:07;;;;;;;7.20;1.40;;;11.00;99.90;;;;;;4965779;28;20031;-73
2022/12/22 06:18:32;;;;;;;8.38;2.13;;;10.80;99.90;;;;;;4970432;28;20022;-75
2022/12/22 06:20:58;;;;;;;6.55;1.50;;;10.80;99.90;;;;;;4973794;28;20082;-75
2022/12/22 06:23:24;;;;;;;8.70;1.45;;;10.70;99.90;;;;;;4970994;28;20038;-75
2022/12/22 06:25:57;;;;;;;7.32;1.38;;;10.60;99.90;;;;;;4973957;28;20034;-77
2022/12/22 06:28:32;;;;;;;6.78;1.30;;;10.50;99.90;;;;;;4973792;28;20057;-76
2022/12/22 06:30:58;;;;;;;8.80;1.75;;;10.40;99.90;;;;;;4972507;28;20031;-79
2022/12/22 06:33:24;;;;;;;7.28;1.30;;;10.40;99.90;;;;;;4970258;28;20158;-80
2022/12/22 06:35:52;;;;;;;11.45;2.00;;;10.30;99.90;;;;;;4978452;28;20070;-75
2022/12/22 06:38:18;;;;;;;5.90;1.10;;;10.30;99.90;;;;;;4980466;28;20035;-76
2022/12/22 06:40:46;;;;;;;11.20;1.75;;;10.30;99.90;;;;;;4977269;28;20144;-77
2022/12/22 06:43:18;;;;;;;6.53;1.33;;;10.20;99.90;;;;;;4974082;28;20018;-75
2022/12/22 06:45:44;;;;;;;6.47;1.23;;;10.20;99.90;;;;;;4975823;28;20027;-77
2022/12/22 06:48:11;;;;;;;7.70;1.63;;;10.20;99.90;;;;;;4973876;28;20015;-75
2022/12/22 06:50:37;;;;;;;5.85;1.35;;;10.10;99.90;;;;;;4975226;28;20019;-76
2022/12/22 06:53:04;;;;;;;6.45;1.00;;;10.10;99.90;;;;;;4979119;28;20050;-76
2022/12/22 06:55:29;;;;;;;6.88;1.10;;;10.10;99.90;;;;;;4975899;28;20050;-76
2022/12/22 06:57:55;;;;;;;6.07;1.05;;;10.20;99.90;;;;;;4975925;28;20043;-76
2022/12/22 07:00:21;;;;;;;7.38;1.10;;;10.30;99.90;;;;;;4974015;28;20543;-75
2022/12/22 07:02:47;;;;;;;6.20;1.10;;;10.30;99.90;;;;;;4969011;28;20047;-75
2022/12/22 07:05:14;;;;;;;8.15;1.45;;;10.30;99.90;;;;;;4969512;28;20183;-75
2022/12/22 07:07:40;;;;;;;8.18;1.52;;;10.30;99.90;;;;;;4974806;28;20527;-74
2022/12/22 07:10:06;;;;;;;3.28;0.88;;;10.40;99.90;;;;;;4973532;28;20055;-79
2022/12/22 07:12:32;;;;;;;7.60;1.33;;;10.40;99.90;;;;;;4966891;28;20031;-77
2022/12/22 07:14:58;;;;;;;6.18;1.58;;;10.40;99.90;;;;;;4970495;28;20030;-77
2022/12/22 07:17:23;;;;;;;8.35;1.73;;;10.30;99.90;;;;;;4969456;28;20490;-76
2022/12/22 07:19:49;;;;;;;12.05;1.50;;;10.30;99.90;;;;;;4972577;28;20030;-77
2022/12/22 07:22:15;;;;;;;6.03;1.80;;;10.30;99.90;;;;;;4969990;28;20534;-77
2022/12/22 07:24:40;;;;;;;6.85;1.40;;;10.30;99.90;;;;;;4969023;28;20046;-75
2022/12/22 07:27:06;;;;;;;4.82;1.20;;;10.30;99.90;;;;;;4967221;28;20654;-76
2022/12/22 07:29:35;;;;;;;9.00;1.60;;;10.20;99.90;;;;;;4968463;28;20027;-75
2022/12/22 07:32:10;;;;;;;11.52;1.83;;;10.20;99.90;;;;;;4969528;28;20512;-75
2022/12/22 07:34:35;;;;;;;8.60;1.95;;;10.20;99.90;;;;;;4967926;28;20031;-75
2022/12/22 07:37:04;;;;;;;6.03;1.58;;;10.20;99.90;;;;;;4971714;28;20030;-75
2022/12/22 07:39:29;;;;;;;4.53;1.67;;;10.30;99.90;;;;;;4964482;28;20109;-76
2022/12/22 07:44:42;;;;;;;10.63;1.92;;;10.20;99.90;;;;;;4966049;28;20061;-76
2022/12/22 07:47:07;;;;;;;10.20;1.70;;;10.20;99.90;;;;;;4983244;28;20504;-76
2022/12/22 07:52:17;;;;;;;7.82;1.95;;;10.10;99.90;;;;;;4969647;28;20037;-74
2022/12/22 07:54:43;;;;;;;9.90;1.75;;;10.10;99.90;;;;;;4975373;28;20398;-75
2022/12/22 07:57:08;;;;;;;5.18;1.33;;;10.10;99.90;;;;;;4987554;28;20053;-74
2022/12/22 07:59:34;;;;;;;6.10;1.60;;;10.20;99.90;;;;;;4972138;28;20106;-74
2022/12/22 08:02:00;;;;;;;9.00;1.52;;;10.30;99.90;;;;;;4965799;28;20325;-74
2022/12/22 08:04:25;;;;;;;8.90;1.50;;;10.20;99.90;;;;;;4983800;28;20118;-74
2022/12/22 08:06:51;;;;;;;8.65;1.80;;;10.20;99.90;;;;;;4966959;28;20510;-75
2022/12/22 08:09:22;;;;;;;5.38;1.67;;;10.10;99.90;;;;;;4968957;28;20035;-75
2022/12/22 08:11:49;;;;;;;4.43;1.60;;;10.00;99.90;;;;;;4973220;28;20030;-75
2022/12/22 08:14:14;;;;;;;8.93;1.58;;;9.90;99.90;;;;;;4986284;28;20522;-75
2022/12/22 08:16:40;;;;;;;6.68;1.50;;;9.80;99.90;;;;;;4970566;28;20051;-75
2022/12/22 08:19:05;;;;;;;12.73;1.30;;;9.70;99.90;;;;;;4971321;28;20031;-75
2022/12/22 08:21:31;;;;;;;8.73;1.58;;;9.70;99.90;;;;;;4973288;28;20083;-74
2022/12/22 08:23:57;;;;;;;11.48;1.80;;;9.50;99.90;;;;;;4970399;28;20035;-75
2022/12/22 08:26:33;;;;;;;7.63;1.33;;;9.50;99.90;;;;;;4982954;28;20034;-74
2022/12/22 08:29:23;;;;;;;8.63;1.58;;;9.40;99.90;;;;;;4971923;28;20037;-74
2022/12/22 08:31:49;;;;;;;6.78;1.13;;;9.40;99.90;;;;;;4971383;28;20043;-74
2022/12/22 08:34:15;;;;;;;4.80;0.90;;;9.40;99.90;;;;;;4971023;28;20580;-74
2022/12/22 08:36:45;;;;;;;7.75;1.00;;;9.30;99.90;;;;;;4969977;28;20518;-74
2022/12/22 08:39:12;;;;;;;4.15;1.02;;;9.30;99.90;;;;;;4971454;28;20019;-74
2022/12/22 08:41:50;;;;;;;2.75;0.65;;;9.30;99.90;;;;;;4973388;28;20027;-73
2022/12/22 08:44:27;;;;;;;4.80;0.88;;;9.20;99.90;;;;;;4969210;28;20095;-74
2022/12/22 08:46:55;;;;;;;7.75;1.52;;;9.20;99.90;;;;;;4976779;28;20070;-74
2022/12/22 08:49:22;;;;;;;5.05;0.95;;;9.20;99.90;;;;;;4989033;28;20491;-75
2022/12/22 08:51:48;;;;;;;6.35;1.17;;;9.30;99.90;;;;;;4977421;28;20448;-75
2022/12/22 08:54:14;;;;;;;8.02;1.00;;;9.30;99.90;;;;;;4968682;28;20042;-74
2022/12/22 08:56:40;;;;;;;2.70;0.57;;;9.30;99.90;;;;;;4978542;28;20031;-74
2022/12/22 08:59:06;;;;;;;5.13;1.00;;;9.40;99.90;;;;;;4967889;28;20029;-74
2022/12/22 09:01:38;;;;;;;4.75;1.00;;;9.40;99.90;;;;;;4989778;28;20022;-73
2022/12/22 09:04:05;;;;;;;5.50;1.30;;;9.40;99.90;;;;;;4975458;28;20023;-74
2022/12/22 09:06:31;;;;;;;4.30;1.13;;;9.40;99.90;;;;;;4973009;28;20460;-74
2022/12/22 09:09:08;;;;;;;9.52;1.60;;;9.50;99.90;;;;;;4976447;28;20041;-74
2022/12/22 09:11:34;;;;;;;5.55;1.30;;;9.50;99.90;;;;;;4977385;28;20531;-74
2022/12/22 09:14:01;;;;;;;5.53;1.30;;;9.60;99.90;;;;;;4977560;28;20065;-74
2022/12/22 09:16:29;;;;;;;9.63;1.60;;;9.60;99.90;;;;;;4973800;28;20030;-74
2022/12/22 09:18:55;;;;;;;7.07;1.30;;;9.60;99.90;;;;;;4988196;28;20435;-74
2022/12/22 09:21:28;;;;;;;4.10;1.10;;;9.70;99.90;;;;;;4976427;28;20179;-75
2022/12/22 09:23:55;;;;;;;6.28;1.42;;;9.70;99.90;;;;;;4971780;28;20031;-74
2022/12/22 09:26:23;;;;;;;5.10;1.10;;;9.70;99.90;;;;;;4976605;28;20038;-74
2022/12/22 09:28:49;;;;;;;8.20;1.85;;;9.70;99.90;;;;;;4972285;28;20105;-74
2022/12/22 09:31:15;;;;;;;9.50;1.67;;;9.70;99.90;;;;;;4972587;28;20038;-74
2022/12/22 09:33:48;;;;;;;5.00;1.30;;;9.70;99.90;;;;;;4974219;28;20027;-74
2022/12/22 09:36:16;;;;;;;7.90;1.10;;;9.80;99.90;;;;;;4975535;28;20030;-74
2022/12/22 09:38:42;;;;;;;8.27;1.40;;;9.70;99.90;;;;;;4975091;28;20101;-74
2022/12/22 09:41:08;;;;;;;10.05;1.65;;;9.70;99.90;;;;;;4968932;28;20030;-74
2022/12/22 09:43:37;;;;;;;9.18;1.42;;;9.70;99.90;;;;;;4991267;28;20122;-74
2022/12/22 09:46:02;;;;;;;9.70;1.40;;;9.70;99.90;;;;;;4988837;28;20069;-73
2022/12/22 09:48:36;;;;;;;4.43;1.15;;;9.70;99.90;;;;;;4973824;28;20089;-74
2022/12/22 09:51:03;;;;;;;9.20;1.70;;;9.70;99.90;;;;;;4973472;28;20529;-74
2022/12/22 09:53:30;;;;;;;3.63;1.15;;;9.70;99.90;;;;;;4989770;28;20042;-75
2022/12/22 09:55:55;;;;;;;11.50;1.92;;;9.70;99.90;;;;;;4975528;28;20078;-74
2022/12/22 09:58:36;;;;;;;6.60;1.60;;;9.70;99.90;;;;;;4973255;28;20042;-73
2022/12/22 10:01:35;;;;;;;6.72;1.35;;;9.60;99.90;;;;;;4983883;28;20042;-74
2022/12/22 10:04:27;;;;;;;8.15;1.33;;;9.70;99.90;;;;;;4988790;28;20072;-74
2022/12/22 10:07:18;;;;;;;7.75;1.17;;;9.60;99.90;;;;;;4933753;28;20035;-75
2022/12/22 10:09:43;;;;;;;6.88;1.50;;;9.70;99.90;;;;;;4982190;23;20019;-79
2022/12/22 10:12:16;;;;;;;10.32;2.30;;;9.80;99.90;;;;;;4969748;28;20569;-78
2022/12/22 10:14:45;;;;;;;5.28;1.67;;;9.80;99.90;;;;;;4966856;28;20043;-78
2022/12/22 10:17:22;;;;;;;8.32;1.67;;;9.90;99.90;;;;;;4970899;28;20037;-78
2022/12/22 10:19:52;;;;;;;6.13;1.70;;;9.90;99.90;;;;;;4972772;28;20578;-79
2022/12/22 10:22:33;;;;;;;9.95;1.92;;;9.90;99.90;;;;;;4984398;28;20034;-79
2022/12/22 10:25:01;;;;;;;4.93;1.25;;;9.90;99.90;;;;;;4972934;28;20527;-78
2022/12/22 10:27:31;;;;;;;9.95;1.70;;;10.00;99.90;;;;;;4987600;28;20035;-78
2022/12/22 10:30:16;;;;;;;9.15;1.70;;;10.00;99.90;;;;;;4974880;28;20733;-78
2022/12/22 10:32:42;;;;;;;9.80;1.85;;;10.00;99.90;;;;;;4973940;28;20120;-79
2022/12/22 10:35:08;;;;;;;8.52;1.65;;;10.00;99.90;;;;;;4973760;28;20045;-79
2022/12/22 10:37:38;;;;;;;3.17;1.15;;;10.10;99.90;;;;;;4968462;28;20035;-78
2022/12/22 10:40:21;;;;;;;6.15;1.67;;;10.00;99.90;;;;;;4973892;28;20026;-78
2022/12/22 10:42:54;;;;;;;6.22;1.65;;;10.10;99.90;;;;;;4987887;28;20051;-77
2022/12/22 10:45:26;;;;;;;6.82;1.73;;;10.10;99.90;;;;;;4988146;28;20026;-77
2022/12/22 10:47:54;;;;;;;5.38;1.50;;;10.10;99.90;;;;;;4972528;28;20058;-78
2022/12/22 10:50:21;;;;;;;6.82;2.03;;;10.10;99.90;;;;;;4986135;28;20062;-78
2022/12/22 10:52:55;;;;;;;8.48;1.70;;;10.10;99.90;;;;;;4971922;28;20031;-78
2022/12/22 10:55:27;;;;;;;9.32;2.08;;;10.10;99.90;;;;;;4972789;28;20069;-78
2022/12/22 10:58:08;;;;;;;10.90;2.50;;;10.10;99.90;;;;;;4972078;28;20038;-78
2022/12/22 11:00:36;;;;;;;7.32;2.03;;;10.10;99.90;;;;;;4968661;28;20042;-78
2022/12/22 11:03:04;;;;;;;6.22;1.25;;;10.10;99.90;;;;;;4973932;28;20031;-78
2022/12/22 11:05:31;;;;;;;13.48;2.28;;;10.10;99.90;;;;;;4986344;28;20023;-78
2022/12/22 11:08:04;;;;;;;8.55;1.70;;;10.10;99.90;;;;;;4972215;28;20411;-79
2022/12/22 11:10:40;;;;;;;9.60;2.57;;;10.10;99.90;;;;;;4971313;28;20114;-78
2022/12/22 11:13:43;;;;;;;11.38;2.45;;;10.20;99.90;;;;;;4973145;28;20023;-78
2022/12/22 11:16:36;;;;;;;10.45;1.63;;;10.30;99.90;;;;;;4983325;28;20043;-78
2022/12/22 11:19:35;;;;;;;12.25;1.67;;;10.30;99.90;;;;;;4969550;28;20034;-78
2022/12/22 11:22:16;;;;;;;5.97;1.20;;;10.40;99.90;;;;;;4972261;28;20098;-78
2022/12/22 11:24:54;;;;;;;6.97;1.27;;;10.50;99.90;;;;;;4984866;28;21811;-79
2022/12/22 11:27:44;;;;;;;7.72;1.77;;;10.50;99.90;;;;;;4970062;28;20139;-79
2022/12/22 11:30:22;;;;;;;3.40;1.10;;;10.60;99.90;;;;;;4971278;28;20395;-78
2022/12/22 11:33:10;;;;;;;6.47;1.55;;;10.60;99.90;;;;;;4973966;28;20031;-78
2022/12/22 11:36:05;;;;;;;7.43;1.20;;;10.70;99.90;;;;;;4967645;28;20110;-78
2022/12/22 11:38:36;;;;;;;8.75;1.60;;;10.70;99.90;;;;;;4968842;28;20034;-78
2022/12/22 11:41:26;;;;;;;3.65;0.98;;;10.70;99.90;;;;;;4984576;28;20027;-79
2022/12/22 11:44:17;;;;;;;6.60;1.58;;;10.70;99.90;;;;;;4973980;28;20062;-79
2022/12/22 11:46:58;;;;;;;9.75;1.90;;;10.80;99.90;;;;;;4991161;28;20023;-79
2022/12/22 11:49:45;;;;;;;9.18;1.40;;;10.80;99.90;;;;;;4973963;28;20031;-78
2022/12/22 11:52:44;;;;;;;8.68;1.40;;;10.80;99.90;;;;;;4970966;28;20031;-79
2022/12/22 11:55:12;;;;;;;6.78;1.20;;;10.80;99.90;;;;;;4973783;28;20026;-78
2022/12/22 11:57:40;;;;;;;5.28;1.40;;;10.80;99.90;;;;;;4969590;28;20042;-80
2022/12/22 12:00:15;;;;;;;6.30;1.33;;;10.80;99.90;;;;;;4972230;28;20031;-79
2022/12/22 12:03:02;;;;;;;8.23;1.73;;;10.80;99.90;;;;;;4976115;28;20442;-78
2022/12/22 12:06:18;;;;;;;6.20;1.77;;;10.70;99.90;;;;;;4969278;28;20101;-78
2022/12/22 12:09:04;;;;;;;9.73;2.45;;;10.80;99.90;;;;;;4933353;29;20035;-78
2022/12/22 12:11:52;;;;;;;7.53;2.00;;;10.80;99.90;;;;;;4971354;28;20031;-79
2022/12/22 12:14:50;;;;;;;7.80;1.58;;;10.80;99.90;;;;;;4990326;28;20039;-79
2022/12/22 12:17:27;;;;;;;5.72;1.50;;;10.80;99.90;;;;;;4946854;28;20121;-79
2022/12/22 12:20:35;;;;;;;3.75;1.35;;;10.80;99.90;;;;;;4990319;28;20034;-80
2022/12/22 12:23:36;;;;;;;6.65;1.17;;;10.80;99.90;;;;;;4953947;28;20050;-80
2022/12/22 12:26:07;;;;;;;5.18;1.35;;;10.80;99.90;;;;;;4876913;29;20120;-79
2022/12/22 12:29:14;;;;;;;8.80;1.35;;;10.80;99.90;;;;;;4951131;28;20047;-79
2022/12/22 12:31:46;;;;;;;7.78;1.80;;;10.80;99.90;;;;;;4976881;28;20221;-80
2022/12/22 12:34:15;;;;;;;5.60;1.40;;;10.80;99.90;;;;;;4975503;28;20027;-80
2022/12/22 12:37:11;;;;;;;5.60;1.40;;;10.80;99.90;;;;;;4976645;28;20030;-79
2022/12/22 12:39:46;;;;;;;6.25;1.90;;;10.80;99.90;;;;;;4976915;28;20422;-79
2022/12/22 12:42:18;;;;;;;11.07;2.00;;;10.80;99.90;;;;;;4994542;28;20030;-79
2022/12/22 12:44:45;;;;;;;10.50;2.45;;;10.80;99.90;;;;;;4975160;28;20034;-80
2022/12/22 12:47:33;;;;;;;7.55;1.60;;;10.80;99.90;;;;;;4978567;28;20085;-80
2022/12/22 12:50:05;;;;;;;5.72;1.88;;;10.90;99.90;;;;;;4975477;28;20046;-80
2022/12/22 12:52:39;;;;;;;6.70;1.42;;;10.90;99.90;;;;;;4976183;28;20037;-79
2022/12/22 12:55:23;;;;;;;8.95;1.90;;;10.90;99.90;;;;;;4978574;28;20031;-79
2022/12/22 12:57:49;;;;;;;7.47;1.60;;;10.90;99.90;;;;;;4976332;28;20027;-79
2022/12/22 13:00:33;;;;;;;9.75;2.13;;;10.90;99.90;;;;;;4979359;28;20080;-80
2022/12/22 13:03:07;;;;;;;5.57;1.17;;;10.80;99.90;;;;;;4979577;28;20027;-78
2022/12/22 13:05:52;;;;;;;;;;;10.90;99.90;;;;;;4977747;28;20027;-78
2022/12/22 13:08:22;;;;;;;6.80;1.70;;;10.80;99.90;;;;;;4973521;28;19910;-79
2022/12/22 13:10:50;;;;;;;8.18;2.03;;;10.90;99.90;;;;;;4993253;28;20038;-79
2022/12/22 13:13:22;;;;;;;7.20;1.63;;;10.90;99.90;;;;;;4988006;28;20579;-79
2022/12/22 13:16:06;;;;;;;9.38;1.75;;;10.90;99.90;;;;;;4975301;28;20026;-78
2022/12/22 13:18:50;;;;;;;7.15;2.00;;;11.00;99.90;;;;;;4975371;28;20032;-79
2022/12/22 13:21:27;;;;;;;11.25;1.90;;;11.00;99.90;;;;;;4977352;28;20034;-78
2022/12/22 13:24:28;;;;;;;8.32;2.03;;;11.10;99.90;;;;;;4972086;28;20031;-80
2022/12/22 13:27:01;;;;;;;6.93;1.70;;;11.10;99.90;;;;;;4935365;28;20074;-78
2022/12/22 13:29:44;;;;;;;9.13;2.67;;;11.10;99.90;;;;;;4973859;28;20527;-78
2022/12/22 13:32:25;;;;;;;9.07;1.63;;;11.10;99.90;;;;;;4986352;28;20417;-79
2022/12/22 13:35:04;;;;;;;11.55;1.30;;;11.20;99.90;;;;;;4966756;28;20479;-79
2022/12/22 13:37:44;;;;;;;8.25;1.40;;;11.20;99.90;;;;;;4992423;28;20027;-79
2022/12/22 13:40:12;;;;;;;4.97;1.35;;;11.30;99.90;;;;;;4975350;28;20596;-80
2022/12/22 13:42:40;;;;;;;8.70;1.88;;;11.30;99.90;;;;;;4975938;28;20030;-78
2022/12/22 13:45:24;;;;;;;8.55;1.80;;;11.20;99.90;;;;;;4969821;28;20023;-78
2022/12/22 13:47:51;;;;;;;12.30;2.40;;;11.30;99.90;;;;;;4988516;28;20032;-79
2022/12/22 13:50:25;;;;;;;9.00;2.10;;;11.20;99.90;;;;;;4978571;28;20500;-78
2022/12/22 13:52:51;;;;;;;;;;;11.20;99.90;;;;;;4972216;28;20038;-78
2022/12/22 13:55:23;;;;;;;7.93;1.80;;;11.20;99.90;;;;;;4972292;28;19910;-80
2022/12/22 13:57:50;;;;;;;11.38;2.33;;;11.20;99.90;;;;;;4989658;28;20031;-79
2022/12/22 14:00:24;;;;;;;10.98;2.25;;;11.20;99.90;;;;;;4972512;28;20035;-80
2022/12/22 14:02:50;;;;;;;;;;;11.20;99.90;;;;;;4974318;28;20019;-79
2022/12/22 14:05:17;;;;;;;6.95;2.13;;;11.20;99.90;;;;;;4974710;28;19936;-78
2022/12/22 14:07:59;;;;;;;10.57;2.17;;;11.10;99.90;;;;;;4972366;28;20447;-80
2022/12/22 14:10:31;;;;;;;9.52;2.05;;;11.10;99.90;;;;;;4975772;28;20030;-80
2022/12/22 14:12:59;;;;;;;11.40;2.30;;;11.00;99.90;;;;;;4991185;28;20038;-79
2022/12/22 14:15:24;;;;;;;11.55;2.30;;;11.00;99.90;;;;;;4978874;28;20169;-79
2022/12/22 14:17:50;;;;;;;7.82;1.88;;;10.90;99.90;;;;;;4974746;28;20113;-78
2022/12/22 14:20:34;;;;;;;6.45;2.00;;;10.90;99.90;;;;;;4974652;28;20026;-78
2022/12/22 14:23:21;;;;;;;7.82;2.05;;;10.80;99.90;;;;;;4974179;28;20023;-78
2022/12/22 14:25:48;;;;;;;13.38;2.80;;;10.70;99.90;;;;;;4969217;28;20031;-78
2022/12/22 14:28:23;;;;;;;13.73;2.40;;;10.70;99.90;;;;;;4975986;28;20077;-80
2022/12/22 14:30:54;;;;;;;12.52;1.92;;;10.60;99.90;;;;;;4970343;28;20039;-79
2022/12/22 14:33:25;;;;;;;12.82;2.42;;;10.60;99.90;;;;;;4972732;28;20027;-79
2022/12/22 14:36:10;;;;;;;15.60;3.35;;;10.60;99.90;;;;;;4976426;28;20387;-78
2022/12/22 14:38:48;;;;;;;7.82;1.67;;;10.60;99.90;;;;;;4972739;28;20034;-79
2022/12/22 14:41:43;;;;;;;9.00;2.40;;;10.60;99.90;;;;;;4976474;28;20086;-78
2022/12/22 14:44:12;;;;;;;7.60;2.13;;;10.50;99.90;;;;;;4973188;28;20031;-79
2022/12/22 14:46:38;;;;;;;15.80;1.98;;;10.50;99.90;;;;;;4964861;28;20030;-79
2022/12/22 14:49:04;;;;;;;8.88;2.20;;;10.40;99.90;;;;;;4973772;28;20020;-79
2022/12/22 14:51:33;;;;;;;11.55;2.17;;;10.40;99.90;;;;;;4975838;28;20055;-79
2022/12/22 14:56:27;;;;;;;10.55;2.58;;;10.40;99.90;;;;;;5012329;28;20058;-78
2022/12/22 14:59:10;;;;;;;9.88;1.88;;;10.40;99.90;;;;;;5012396;28;20057;-78
2022/12/22 15:01:37;;;;;;;7.63;1.70;;;10.40;99.90;;;;;;4991082;28;20027;-78
2022/12/22 15:04:19;;;;;;;7.15;2.17;;;10.40;99.90;;;;;;4994219;28;20027;-79
2022/12/22 15:06:48;;;;;;;9.57;2.65;;;10.40;99.90;;;;;;4969495;28;20042;-78
2022/12/22 15:09:13;;;;;;;10.20;2.20;;;10.40;99.90;;;;;;4969770;28;20035;-78
2022/12/22 15:11:43;;;;;;;9.38;2.00;;;10.40;99.90;;;;;;4971837;28;20506;-78
2022/12/22 15:14:16;;;;;;;12.93;2.38;;;10.40;99.90;;;;;;4970447;28;20027;-78
2022/12/22 15:16:42;;;;;;;13.63;2.40;;;10.30;99.90;;;;;;4969421;28;20038;-78
2022/12/22 15:19:12;;;;;;;9.23;1.60;;;10.30;99.90;;;;;;4985431;28;20170;-78
2022/12/22 15:21:38;;;;;;;9.68;1.77;;;10.20;99.90;;;;;;4966434;28;20023;-78
2022/12/22 15:24:10;;;;;;;13.05;2.00;;;10.20;99.90;;;;;;4968778;28;20037;-78
2022/12/22 15:26:36;;;;;;;9.18;2.33;;;10.20;99.90;;;;;;5006282;28;20035;-78
2022/12/22 15:29:02;;;;;;;11.80;2.08;;;10.20;99.90;;;;;;4976188;28;20085;-78
2022/12/22 15:31:28;;;;;;;8.90;1.95;;;10.20;99.90;;;;;;4984267;28;20198;-78
2022/12/22 15:33:56;;;;;;;13.27;2.47;;;10.20;99.90;;;;;;4971079;28;20268;-78
2022/12/22 15:36:22;;;;;;;14.63;3.47;;;10.10;99.90;;;;;;4971813;28;20031;-78
2022/12/22 15:38:49;;;;;;;11.75;3.13;;;10.10;99.90;;;;;;4970181;28;20034;-78
2022/12/22 15:41:14;;;;;;;10.75;3.22;;;10.10;99.90;;;;;;4971110;28;20169;-78
2022/12/22 15:43:40;;;;;;;11.63;2.63;;;10.10;99.90;;;;;;4984039;28;20118;-78
2022/12/22 15:46:06;;;;;;;13.23;3.08;;;10.10;99.90;;;;;;4970368;28;20026;-78
2022/12/22 15:48:33;;;;;;;13.43;2.40;;;10.10;99.90;;;;;;4971447;28;20042;-78
2022/12/22 15:51:02;;;;;;;13.88;2.60;;;10.10;99.90;;;;;;4971865;28;20035;-77
2022/12/22 15:53:29;;;;;;;11.98;2.97;;;10.10;99.90;;;;;;4967800;28;20110;-77
2022/12/22 15:55:57;;;;;;;18.48;3.58;;;10.10;99.90;;;;;;4966094;28;20041;-79
2022/12/22 15:58:26;;;;;;;10.18;2.60;;;10.10;99.90;;;;;;4968980;28;20037;-78
2022/12/22 16:00:51;;;;;;;10.45;2.15;;;10.10;99.90;;;;;;4972253;28;20038;-78
2022/12/22 16:03:17;;;;;;;11.93;2.35;;;10.10;99.90;;;;;;4969486;28;20502;-78
2022/12/22 16:05:44;;;;;;;14.10;2.80;;;10.10;99.90;;;;;;4969060;28;20443;-78
2022/12/22 16:08:25;;;;;;;11.95;3.50;;;10.00;99.90;;;;;;4968151;28;20030;-78
2022/12/22 16:10:53;;;;;;;10.77;2.42;;;10.00;99.90;;;;;;4980655;23;20046;-75
2022/12/22 16:13:22;;;;;;;14.25;3.55;;;10.00;99.90;;;;;;4988784;28;20106;-75
2022/12/22 16:15:53;;;;;;;13.35;3.00;;;9.90;99.90;;;;;;4971968;28;20027;-75
2022/12/22 16:18:25;;;;;;;11.80;2.78;;;9.90;99.90;;;;;;4973928;28;20391;-75
2022/12/22 16:20:51;;;;;;;10.52;2.58;;;9.90;99.90;;;;;;4989933;28;20025;-75
2022/12/22 16:23:20;;;;;;;13.10;3.95;;;9.80;99.90;;;;;;4970202;28;20102;-75
2022/12/22 16:25:46;;;;;;;15.63;3.75;;;9.80;99.90;;;;;;4968727;28;20429;-77
2022/12/22 16:28:16;;;;;;;16.30;3.53;;;9.80;99.90;;;;;;4970238;28;20326;-77
2022/12/22 16:30:51;;;;;;;11.65;3.35;;;9.80;99.90;;;;;;4970932;28;20119;-77
2022/12/22 16:33:18;;;;;;;13.38;3.65;;;9.80;99.90;;;;;;4982386;28;20038;-76
2022/12/22 16:35:44;;;;;;;14.57;2.85;;;9.80;99.90;;;;;;4970357;28;20035;-78
2022/12/22 16:38:10;;;;;;;13.98;3.53;;;9.80;99.90;;;;;;4971887;28;20027;-78
2022/12/22 16:40:49;;;;;;;7.63;2.72;;;9.80;99.90;;;;;;4974869;28;20031;-76
2022/12/22 16:43:15;;;;;;;12.73;2.97;;;9.80;99.90;;;;;;4972831;28;20034;-78
2022/12/22 16:45:43;;;;;;;15.52;3.67;;;9.70;99.90;;;;;;4971270;28;20404;-78
2022/12/22 16:48:17;;;;;;;13.43;3.22;;;9.70;99.90;;;;;;4971095;28;20084;-76
2022/12/22 16:50:46;;;;;;;13.57;4.05;;;9.70;99.90;;;;;;4968191;28;20054;-76
2022/12/22 16:53:15;;;;;;;19.00;3.85;;;9.70;99.90;;;;;;4968471;28;20031;-76
2022/12/22 16:55:41;;;;;;;14.55;3.35;;;9.70;99.90;;;;;;4972168;28;20050;-78